Time;durP1;ratioP1;P1;durP2;ratioP2;P2;SDS_P1;SDS_P2;PMS_P1;PMS_P2;Temp;Humidity;BMP_temperature;BMP_pressure;BME280_temperature;BME280_humidity;BME280_pressure;Samples;Min_cycle;Max_cycle;Signal;HPM_P1;HPM_P2
2022/06/25 00:01:50;;;;;;;2.03;1.47;;;;;;;21.95;100.00;98731.22;5108123;27;20927;-80
2022/06/25 00:07:02;;;;;;;3.80;1.80;;;;;;;21.73;100.00;98736.72;5112093;27;20236;-81
2022/06/25 00:09:29;;;;;;;2.63;1.30;;;;;;;21.79;100.00;98749.06;5091666;28;20321;-81
2022/06/25 00:14:41;;;;;;;3.23;1.20;;;;;;;21.59;100.00;98767.91;5102957;27;20249;-81
2022/06/25 00:17:08;;;;;;;2.50;1.50;;;;;;;21.42;100.00;98772.13;5113001;27;20227;-81
2022/06/25 00:19:34;;;;;;;2.90;1.50;;;;;;;21.51;100.00;98783.88;5105715;27;20258;-81
2022/06/25 00:22:01;;;;;;;4.53;1.70;;;;;;;21.55;100.00;98786.00;5110191;27;20299;-80
2022/06/25 00:24:28;;;;;;;2.23;1.40;;;;;;;21.47;100.00;98788.34;5106599;27;20223;-81
2022/06/25 00:26:54;;;;;;;3.17;1.50;;;;;;;21.38;100.00;98794.84;5109178;27;20237;-81
2022/06/25 00:29:21;;;;;;;1.97;1.43;;;;;;;21.45;100.00;98793.31;5107835;27;20239;-80
2022/06/25 00:31:48;;;;;;;1.80;1.40;;;;;;;21.43;100.00;98800.97;5097716;27;20226;-81
2022/06/25 00:34:14;;;;;;;1.80;1.37;;;;;;;21.58;100.00;98818.88;5092535;28;20726;-81
2022/06/25 00:36:41;;;;;;;1.43;1.33;;;;;;;21.53;100.00;98816.28;5103448;27;20692;-80
2022/06/25 00:39:07;;;;;;;2.40;1.37;;;;;;;21.49;100.00;98812.56;5093903;27;20279;-81
2022/06/25 00:41:34;;;;;;;1.30;1.20;;;;;;;21.48;100.00;98810.94;5108022;27;20323;-80
2022/06/25 00:44:06;;;;;;;2.60;1.33;;;;;;;21.46;100.00;98822.16;5113766;27;20250;-80
2022/06/25 00:46:33;;;;;;;2.43;1.30;;;;;;;21.66;100.00;98839.13;5112760;27;20722;-80
2022/06/25 00:49:02;;;;;;;2.23;1.20;;;;;;;21.60;100.00;98837.66;5113086;27;20601;-81
2022/06/25 00:51:31;;;;;;;2.43;1.20;;;;;;;21.48;100.00;98844.47;5116149;27;20229;-81
2022/06/25 00:54:03;;;;;;;1.57;1.40;;;;;;;21.37;100.00;98851.25;5115814;27;20317;-80
2022/06/25 00:56:36;;;;;;;2.70;1.33;;;;;;;21.39;100.00;98849.03;5116593;27;20310;-80
2022/06/25 00:59:05;;;;;;;1.60;1.40;;;;;;;21.33;100.00;98854.91;5095460;27;20236;-80
2022/06/25 01:01:34;;;;;;;1.70;1.10;;;;;;;21.48;100.00;98860.81;5098575;28;20233;-81
2022/06/25 01:04:00;;;;;;;1.67;1.23;;;;;;;21.55;100.00;98865.84;5107606;27;20516;-80
2022/06/25 01:06:30;;;;;;;2.93;0.90;;;;;;;21.59;100.00;98871.47;5116415;27;20301;-81
2022/06/25 01:08:57;;;;;;;2.13;1.20;;;;;;;21.39;100.00;98862.66;5092949;28;20266;-81
2022/06/25 01:11:25;;;;;;;2.30;1.00;;;;;;;21.33;100.00;98873.97;5112199;27;20781;-80
2022/06/25 01:13:52;;;;;;;2.63;1.27;;;;;;;20.88;100.00;98875.78;5091957;28;20247;-80
2022/06/25 01:16:21;;;;;;;3.57;1.30;;;;;;;20.63;100.00;98879.81;5105242;27;20229;-80
2022/06/25 01:18:49;;;;;;;1.57;0.60;;;;;;;20.33;100.00;98885.88;5078518;28;20274;-81
2022/06/25 01:21:16;;;;;;;1.97;0.40;;;;;;;20.09;100.00;98880.59;5121086;27;20240;-79
2022/06/25 01:23:43;;;;;;;0.87;0.37;;;;;;;19.86;100.00;98887.78;5124673;27;20291;-81
2022/06/25 01:26:09;;;;;;;0.30;0.30;;;;;;;19.58;100.00;98880.63;5110758;27;20325;-81
2022/06/25 01:28:36;;;;;;;0.93;0.20;;;;;;;19.49;100.00;98896.00;5122452;27;20308;-81
2022/06/25 01:31:03;;;;;;;2.33;0.20;;;;;;;19.32;100.00;98889.13;5099042;28;20240;-81
2022/06/25 01:33:29;;;;;;;0.23;0.17;;;;;;;19.11;100.00;98885.13;5119142;27;20232;-80
2022/06/25 01:35:56;;;;;;;1.10;0.10;;;;;;;18.94;100.00;98898.41;5084508;28;20781;-81
2022/06/25 01:38:26;;;;;;;0.10;0.10;;;;;;;18.94;100.00;98901.09;5102315;28;20223;-80
2022/06/25 01:40:52;;;;;;;0.23;0.20;;;;;;;18.94;100.00;98892.16;5098273;28;20670;-81
2022/06/25 01:43:19;;;;;;;1.30;0.10;;;;;;;18.92;100.00;98900.56;5101804;28;20322;-80
2022/06/25 01:45:46;;;;;;;1.07;0.20;;;;;;;18.92;100.00;98904.09;5112764;28;20235;-80
2022/06/25 01:48:12;;;;;;;0.77;0.10;;;;;;;18.90;100.00;98917.16;5093978;28;20240;-80
2022/06/25 01:50:39;;;;;;;0.20;0.00;;;;;;;18.71;100.00;98910.09;5091510;28;20318;-80
2022/06/25 01:53:06;;;;;;;2.37;0.20;;;;;;;18.71;100.00;98901.94;5096888;28;20235;-80
2022/06/25 01:55:33;;;;;;;3.50;0.20;;;;;;;18.81;100.00;98901.78;5092656;28;20240;-80
2022/06/25 01:58:00;;;;;;;2.77;0.20;;;;;;;18.85;100.00;98906.34;5089823;28;20254;-80
2022/06/25 02:00:29;;;;;;;0.20;0.10;;;;;;;18.85;100.00;98906.34;5092137;28;20318;-81
2022/06/25 02:03:01;;;;;;;0.30;0.20;;;;;;;18.83;100.00;98924.03;5092169;28;20285;-80
2022/06/25 02:08:17;;;;;;;1.60;0.10;;;;;;;18.75;100.00;98930.91;5097811;28;20231;-80
2022/06/25 02:10:46;;;;;;;0.30;0.10;;;;;;;18.80;100.00;98927.34;5095021;28;20677;-81
2022/06/25 02:13:13;;;;;;;0.90;0.17;;;;;;;18.69;100.00;98926.63;5095963;28;20628;-81
2022/06/25 02:15:40;;;;;;;0.20;0.20;;;;;;;18.68;100.00;98935.06;5084733;28;20271;-81
2022/06/25 02:18:08;;;;;;;0.20;0.10;;;;;;;18.91;100.00;98934.25;5088177;28;20286;-80
2022/06/25 02:20:34;;;;;;;0.30;0.10;;;;;;;18.91;100.00;98937.75;5078948;28;20219;-81
2022/06/25 02:23:01;;;;;;;2.00;0.27;;;;;;;18.84;100.00;98931.91;5080999;28;20775;-81
2022/06/25 02:25:28;;;;;;;0.10;0.10;;;;;;;18.89;100.00;98941.88;5099752;28;20228;-80
2022/06/25 02:27:55;;;;;;;0.30;0.17;;;;;;;18.87;100.00;98935.91;5075081;28;20321;-81
2022/06/25 02:30:22;;;;;;;0.47;0.10;;;;;;;19.00;100.00;98946.06;5104902;28;20311;-80
2022/06/25 02:32:48;;;;;;;0.30;0.10;;;;;;;18.90;100.00;98938.03;5094958;28;20228;-80
2022/06/25 02:35:15;;;;;;;0.10;0.10;;;;;;;18.90;100.00;98932.63;5098320;28;20320;-80
2022/06/25 02:37:42;;;;;;;0.10;0.10;;;;;;;18.98;100.00;98961.03;5098481;28;20260;-81
2022/06/25 02:40:12;;;;;;;5.43;0.20;;;;;;;19.10;100.00;98954.09;5097122;28;20228;-80
2022/06/25 02:42:41;;;;;;;1.80;0.10;;;;;;;19.01;100.00;98950.41;5098414;28;20232;-81
2022/06/25 02:45:08;;;;;;;0.10;0.10;;;;;;;19.12;100.00;98941.03;5100889;28;20252;-81
2022/06/25 02:47:37;;;;;;;0.47;0.10;;;;;;;19.05;100.00;98948.72;5102615;28;20265;-81
2022/06/25 02:50:08;;;;;;;0.30;0.20;;;;;;;19.08;100.00;98969.06;5096247;28;20236;-80
2022/06/25 02:52:35;;;;;;;1.20;0.10;;;;;;;19.06;100.00;98968.53;5095835;28;20303;-81
2022/06/25 02:55:04;;;;;;;0.77;0.00;;;;;;;18.92;100.00;98968.44;5098972;28;20229;-81
2022/06/25 03:00:25;;;;;;;0.10;0.00;;;;;;;18.87;100.00;98984.78;5096699;28;20232;-80
2022/06/25 03:02:52;;;;;;;1.17;0.20;;;;;;;18.63;100.00;99001.03;5100531;28;20220;-80
2022/06/25 03:05:19;;;;;;;0.40;0.10;;;;;;;18.40;100.00;98999.88;5100431;28;20305;-81
2022/06/25 03:07:46;;;;;;;1.50;0.20;;;;;;;18.25;100.00;99004.63;5103767;28;20232;-81
2022/06/25 03:10:13;;;;;;;1.93;0.10;;;;;;;18.02;100.00;99008.88;5102186;28;20780;-80
2022/06/25 03:12:40;;;;;;;0.23;0.20;;;;;;;17.96;100.00;99013.53;5089044;28;20237;-81
2022/06/25 03:15:17;;;;;;;1.30;0.20;;;;;;;17.73;100.00;99008.03;5089230;28;20740;-80
2022/06/25 03:17:44;;;;;;;1.57;0.20;;;;;;;17.59;100.00;99016.75;5086755;28;20254;-81
2022/06/25 03:20:31;;;;;;;0.93;0.33;;;;;;;17.53;100.00;99006.22;5092459;28;20268;-79
2022/06/25 03:23:00;;;;;;;2.67;0.40;;;;;;;17.37;100.00;99013.59;5096503;28;20259;-80
2022/06/25 03:25:27;;;;;;;0.77;0.20;;;;;;;17.22;100.00;99007.47;5093197;28;20243;-80
2022/06/25 03:27:57;;;;;;;0.33;0.20;;;;;;;17.22;100.00;99007.47;5077859;28;20704;-80
2022/06/25 03:30:25;;;;;;;0.87;0.40;;;;;;;17.00;100.00;98999.69;5099899;28;20231;-79
2022/06/25 03:32:52;;;;;;;0.63;0.20;;;;;;;17.10;100.00;98995.06;5101863;28;20231;-79
2022/06/25 03:35:39;;;;;;;0.33;0.30;;;;;;;16.93;100.00;98994.59;5095935;28;20237;-80
2022/06/25 03:38:17;;;;;;;0.73;0.23;;;;;;;16.90;100.00;99005.94;5095027;28;20240;-80
2022/06/25 03:40:44;;;;;;;0.60;0.23;;;;;;;16.82;100.00;99011.13;5102460;28;20235;-80
2022/06/25 03:43:14;;;;;;;2.07;0.37;;;;;;;16.93;100.00;99018.13;5103797;28;20247;-80
2022/06/25 03:45:43;;;;;;;0.67;0.30;;;;;;;16.83;100.00;99021.66;5104322;28;20590;-79
2022/06/25 03:48:10;;;;;;;1.00;0.20;;;;;;;16.89;100.00;99012.44;5085382;28;20576;-80
2022/06/25 03:50:55;;;;;;;0.93;0.13;;;;;;;16.78;100.00;99024.38;5073465;28;20240;-79
2022/06/25 03:53:22;;;;;;;0.20;0.10;;;;;;;16.71;100.00;99021.13;5074321;28;20663;-80
2022/06/25 03:55:48;;;;;;;0.23;0.20;;;;;;;16.61;100.00;99021.97;5082427;28;20278;-80
2022/06/25 03:58:20;;;;;;;1.60;0.30;;;;;;;16.65;100.00;99020.38;5067204;28;22864;-80
2022/06/25 04:00:47;;;;;;;0.20;0.20;;;;;;;16.64;100.00;99013.31;5075281;28;20735;-79
2022/06/25 04:03:14;;;;;;;0.50;0.20;;;;;;;16.60;100.00;99023.06;5069886;28;20250;-79
2022/06/25 04:05:56;;;;;;;0.37;0.13;;;;;;;16.61;100.00;99013.06;5075512;28;20244;-81
2022/06/25 04:08:36;;;;;;;0.10;0.10;;;;;;;16.71;100.00;99021.94;5070186;28;20228;-80
2022/06/25 04:11:06;;;;;;;0.23;0.20;;;;;;;16.85;100.00;99015.97;5065867;28;20243;-80
2022/06/25 04:13:36;;;;;;;0.20;0.20;;;;;;;16.90;100.00;99014.06;5073268;28;20232;-80
2022/06/25 04:16:03;;;;;;;0.20;0.20;;;;;;;16.87;100.00;99013.81;5076212;28;20231;-80
2022/06/25 04:18:31;;;;;;;0.30;0.20;;;;;;;16.90;100.00;99014.06;5070602;28;20252;-80
2022/06/25 04:20:59;;;;;;;0.10;0.10;;;;;;;16.92;100.00;99016.50;5072896;28;20639;-81
2022/06/25 04:23:26;;;;;;;0.87;0.20;;;;;;;16.96;100.00;99018.38;5054325;28;20732;-80
2022/06/25 04:25:54;;;;;;;0.30;0.13;;;;;;;16.90;100.00;99019.47;5055163;28;20229;-81
2022/06/25 04:31:39;;;;;;;1.07;0.20;;;;;;;17.00;100.00;99018.63;5044870;28;20241;-81
2022/06/25 04:34:11;;;;;;;0.20;0.20;;;;;;;17.03;100.00;99024.28;5056224;28;20237;-81
2022/06/25 04:36:39;;;;;;;0.20;0.20;;;;;;;17.13;100.00;99018.84;5074050;28;20216;-81
2022/06/25 04:39:24;;;;;;;0.20;0.13;;;;;;;17.11;100.00;99018.34;5068714;28;20307;-82
2022/06/25 04:41:51;;;;;;;0.20;0.20;;;;;;;17.12;100.00;99019.16;5066727;28;20315;-81
2022/06/25 04:44:23;;;;;;;0.47;0.20;;;;;;;17.17;100.00;99019.91;5082605;28;20664;-81
2022/06/25 04:46:51;;;;;;;0.87;0.13;;;;;;;17.09;100.00;99020.50;5072373;27;20232;-81
2022/06/25 04:49:24;;;;;;;0.70;0.70;;;;;;;17.19;100.00;99030.47;5100396;27;20262;-81
2022/06/25 04:51:50;;;;;;;0.90;0.20;;;;;;;17.19;100.00;99027.75;5096363;28;20314;-82
2022/06/25 04:54:17;;;;;;;0.83;0.20;;;;;;;17.33;100.00;99027.97;5087475;28;20310;-80
2022/06/25 04:56:48;;;;;;;1.37;0.20;;;;;;;17.28;100.00;99022.56;5088034;28;20235;-80
2022/06/25 04:59:18;;;;;;;0.10;0.10;;;;;;;17.42;100.00;99018.19;5092483;28;20235;-81
2022/06/25 05:02:17;;;;;;;0.20;0.20;;;;;;;17.41;100.00;99016.56;5092165;28;20235;-81
2022/06/25 05:04:52;;;;;;;0.10;0.10;;;;;;;17.42;100.00;99029.00;5108454;28;20770;-80
2022/06/25 05:07:19;;;;;;;0.20;0.20;;;;;;;17.42;100.00;99026.31;5093432;28;20238;-81
2022/06/25 05:09:46;;;;;;;0.47;0.30;;;;;;;17.47;100.00;99029.00;5097679;28;20235;-80
2022/06/25 05:13:11;;;;;;;0.73;0.20;;;;;;;17.33;100.00;99036.91;5081589;28;20232;-80
2022/06/25 05:15:03;;;;;;;0.20;0.20;;;;;;;17.28;100.00;99038.81;5090671;28;20269;-82
2022/06/25 05:17:32;;;;;;;0.10;0.10;;;;;;;17.31;100.00;99036.38;5100464;28;20238;-81
2022/06/25 05:19:59;;;;;;;0.80;0.10;;;;;;;17.34;100.00;99037.72;5093232;28;20232;-81
2022/06/25 05:22:26;;;;;;;0.57;0.20;;;;;;;17.31;100.00;99041.78;5095175;28;20227;-81
2022/06/25 05:24:52;;;;;;;0.37;0.20;;;;;;;17.29;100.00;99051.28;5084486;28;20232;-81
2022/06/25 05:27:20;;;;;;;0.30;0.20;;;;;;;17.30;100.00;99059.13;5089860;28;20231;-79
2022/06/25 05:29:47;;;;;;;0.73;0.20;;;;;;;17.20;100.00;99053.75;5111441;27;20231;-80
2022/06/25 05:32:13;;;;;;;1.33;0.40;;;;;;;17.18;100.00;99058.63;5090883;28;20289;-80
2022/06/25 05:34:40;;;;;;;1.13;0.43;;;;;;;17.16;100.00;99060.81;5091418;28;20253;-79
2022/06/25 05:37:07;;;;;;;0.30;0.30;;;;;;;17.15;100.00;99073.53;5105448;27;20262;-79
2022/06/25 05:39:34;;;;;;;1.37;0.23;;;;;;;17.10;100.00;99075.44;5083650;28;20261;-80
2022/06/25 05:42:00;;;;;;;0.40;0.30;;;;;;;17.19;100.00;99084.59;5092501;28;20627;-81
2022/06/25 05:44:27;;;;;;;0.33;0.10;;;;;;;17.22;100.00;99077.84;5109047;28;20227;-79
2022/06/25 05:46:53;;;;;;;0.10;0.10;;;;;;;17.23;100.00;99077.56;5103601;28;20254;-80
2022/06/25 05:49:20;;;;;;;0.20;0.20;;;;;;;17.29;100.00;99068.34;5110669;28;20235;-80
2022/06/25 05:51:47;;;;;;;0.20;0.10;;;;;;;17.30;100.00;99088.09;5104876;28;20742;-80
2022/06/25 05:54:13;;;;;;;0.20;0.20;;;;;;;17.12;100.00;99082.19;5113989;28;20219;-79
2022/06/25 05:56:40;;;;;;;0.20;0.20;;;;;;;17.25;100.00;99093.53;5110800;28;20279;-80
2022/06/25 05:59:07;;;;;;;0.77;0.20;;;;;;;17.33;100.00;99085.66;5106373;28;20227;-79
2022/06/25 06:01:35;;;;;;;0.17;0.17;;;;;;;17.30;100.00;99091.63;5119563;28;20238;-80
2022/06/25 06:04:01;;;;;;;0.33;0.20;;;;;;;17.31;100.00;99095.13;5110633;28;20767;-79
2022/06/25 06:06:28;;;;;;;0.67;0.20;;;;;;;17.36;100.00;99092.38;5125660;27;20222;-80
2022/06/25 06:08:55;;;;;;;1.80;0.20;;;;;;;17.43;100.00;99090.22;5121458;27;20231;-79
2022/06/25 06:11:21;;;;;;;0.67;0.30;;;;;;;17.38;100.00;99110.00;5114006;28;20243;-79
2022/06/25 06:13:48;;;;;;;0.20;0.10;;;;;;;17.52;100.00;99104.78;5124879;27;20230;-79
2022/06/25 06:16:15;;;;;;;0.40;0.20;;;;;;;17.49;100.00;99105.38;5118390;27;20216;-80
2022/06/25 06:18:41;;;;;;;1.33;0.30;;;;;;;17.48;100.00;99119.97;5123732;27;20231;-81
2022/06/25 06:21:08;;;;;;;0.20;0.10;;;;;;;17.60;100.00;99105.06;5111472;27;20737;-80
2022/06/25 06:23:41;;;;;;;0.20;0.20;;;;;;;17.84;100.00;99116.06;5111371;27;20235;-80
2022/06/25 06:26:07;;;;;;;0.20;0.10;;;;;;;17.96;100.00;99126.56;5112452;27;20227;-79
2022/06/25 06:28:34;;;;;;;0.60;0.20;;;;;;;18.08;100.00;99109.94;5120070;27;20254;-81
2022/06/25 06:31:01;;;;;;;0.10;0.10;;;;;;;18.03;100.00;99117.03;5110965;27;20736;-80
2022/06/25 06:33:27;;;;;;;0.53;0.30;;;;;;;18.17;100.00;99133.47;5119434;27;20636;-80
2022/06/25 06:35:54;;;;;;;0.23;0.23;;;;;;;18.28;100.00;99124.19;5113128;27;20236;-81
2022/06/25 06:38:21;;;;;;;0.43;0.17;;;;;;;18.44;100.00;99135.72;5113296;27;20318;-81
2022/06/25 06:40:47;;;;;;;0.20;0.20;;;;;;;18.62;100.00;99134.25;5115566;27;20295;-80
2022/06/25 06:43:14;;;;;;;0.20;0.20;;;;;;;18.75;100.00;99137.16;5115387;27;20777;-79
2022/06/25 06:45:41;;;;;;;0.20;0.20;;;;;;;18.88;100.00;99136.47;5119798;27;20704;-81
2022/06/25 06:48:07;;;;;;;0.47;0.20;;;;;;;19.01;100.00;99139.63;5100729;27;20239;-80
2022/06/25 06:50:34;;;;;;;1.00;0.20;;;;;;;18.99;100.00;99150.75;5115720;27;20318;-80
2022/06/25 06:53:01;;;;;;;0.20;0.20;;;;;;;19.23;100.00;99143.47;5111921;27;20226;-81
2022/06/25 06:55:27;;;;;;;0.20;0.20;;;;;;;19.28;100.00;99154.28;5119568;27;20230;-80
2022/06/25 06:57:54;;;;;;;0.20;0.20;;;;;;;19.55;100.00;99148.28;5125598;27;20252;-82
2022/06/25 07:00:21;;;;;;;0.67;0.30;;;;;;;19.71;100.00;99146.22;5120106;27;20791;-80
2022/06/25 07:02:47;;;;;;;0.93;0.20;;;;;;;19.89;100.00;99152.78;5105969;27;20255;-81
2022/06/25 07:05:14;;;;;;;1.37;0.30;;;;;;;20.10;100.00;99149.50;5123631;27;20224;-81
2022/06/25 07:07:41;;;;;;;0.30;0.30;;;;;;;20.39;100.00;99146.63;5113711;27;20306;-81
2022/06/25 07:10:08;;;;;;;0.60;0.27;;;;;;;20.60;100.00;99147.16;5087417;27;20315;-81
2022/06/25 07:12:34;;;;;;;0.27;0.20;;;;;;;20.91;100.00;99140.09;5120445;27;20319;-81
2022/06/25 07:15:01;;;;;;;0.23;0.23;;;;;;;21.16;100.00;99141.59;5120123;27;20247;-81
2022/06/25 07:17:28;;;;;;;0.63;0.20;;;;;;;21.56;100.00;99142.72;5119663;27;20225;-82
2022/06/25 07:19:54;;;;;;;0.20;0.20;;;;;;;21.46;100.00;99140.22;5117264;27;20224;-82
2022/06/25 07:22:21;;;;;;;0.20;0.20;;;;;;;21.85;100.00;99142.38;5112934;27;20776;-81
2022/06/25 07:24:47;;;;;;;0.23;0.20;;;;;;;22.10;100.00;99141.06;5123733;27;20323;-81
2022/06/25 07:27:14;;;;;;;0.20;0.20;;;;;;;22.55;100.00;99147.38;5116342;27;20596;-80
2022/06/25 07:29:41;;;;;;;0.20;0.20;;;;;;;22.63;100.00;99144.72;5126824;27;20252;-80
2022/06/25 07:32:07;;;;;;;1.47;0.40;;;;;;;23.10;100.00;99147.94;5113756;27;20762;-81
2022/06/25 07:34:34;;;;;;;0.80;0.20;;;;;;;23.57;97.39;99141.75;5121247;27;20223;-80
2022/06/25 07:37:00;;;;;;;0.43;0.30;;;;;;;23.92;92.62;99144.59;5116660;27;20310;-80
2022/06/25 07:39:27;;;;;;;0.57;0.30;;;;;;;23.90;93.39;99155.84;5101500;28;20253;-82
2022/06/25 07:41:54;;;;;;;0.30;0.30;;;;;;;23.79;84.72;99157.28;5110589;27;20607;-83
2022/06/25 07:44:20;;;;;;;0.30;0.30;;;;;;;23.95;87.98;99157.63;5099529;27;20269;-83
2022/06/25 07:46:47;;;;;;;0.20;0.20;;;;;;;23.83;85.32;99169.19;5110785;27;20597;-82
2022/06/25 07:49:14;;;;;;;0.23;0.23;;;;;;;24.01;81.66;99167.31;5113662;27;20318;-80
2022/06/25 07:54:28;;;;;;;0.40;0.40;;;;;;;24.14;78.84;99161.69;5102959;27;20821;-80
2022/06/25 07:56:55;;;;;;;0.23;0.23;;;;;;;24.22;75.95;99165.59;5108678;27;20267;-81
2022/06/25 07:59:22;;;;;;;0.73;0.20;;;;;;;24.13;77.76;99159.25;5111170;27;20292;-80
2022/06/25 08:01:49;;;;;;;0.30;0.30;;;;;;;24.20;79.48;99167.84;5107025;27;20280;-81
2022/06/25 08:04:16;;;;;;;0.35;0.30;;;;;;;24.41;74.68;99168.00;5102829;27;20223;-80
2022/06/25 08:06:44;;;;;;;1.48;0.77;;;;;;;24.33;78.76;99161.41;5109689;27;20230;-83
2022/06/25 08:09:10;;;;;;;0.40;0.40;;;;;;;24.42;72.57;99162.22;5088950;28;20232;-81
2022/06/25 08:11:37;;;;;;;2.17;1.80;;;;;;;24.57;73.62;99180.13;5118939;27;20306;-81
2022/06/25 08:14:04;;;;;;;0.70;0.40;;;;;;;24.63;75.13;99173.34;5112532;27;20258;-80
2022/06/25 08:16:31;;;;;;;0.20;0.20;;;;;;;25.02;70.57;99172.34;5115110;27;20252;-81
2022/06/25 08:18:58;;;;;;;0.20;0.20;;;;;;;24.90;72.07;99181.25;5123020;27;20604;-82
2022/06/25 08:21:24;;;;;;;0.43;0.20;;;;;;;25.10;71.33;99181.72;5111103;27;20284;-81
2022/06/25 08:23:51;;;;;;;0.55;0.28;;;;;;;25.17;69.73;99176.50;5117593;27;20262;-81
2022/06/25 08:26:18;;;;;;;0.80;0.20;;;;;;;24.86;71.17;99176.72;5123761;27;20313;-82
2022/06/25 08:28:44;;;;;;;0.47;0.30;;;;;;;25.12;70.18;99173.94;5111507;27;20234;-82
2022/06/25 08:31:11;;;;;;;0.35;0.20;;;;;;;25.30;66.85;99176.31;5117004;27;20254;-81
2022/06/25 08:33:39;;;;;;;2.08;0.40;;;;;;;25.02;69.51;99191.53;5113716;28;20281;-81
2022/06/25 08:36:05;;;;;;;1.35;0.30;;;;;;;24.69;68.69;99173.97;5118633;27;20223;-82
2022/06/25 08:38:32;;;;;;;0.35;0.28;;;;;;;24.61;70.75;99199.44;5122148;27;20665;-81
2022/06/25 08:41:00;;;;;;;0.60;0.30;;;;;;;24.51;71.97;99195.09;5115540;28;20227;-80
2022/06/25 08:43:27;;;;;;;1.00;0.30;;;;;;;24.66;71.15;99191.88;5110439;28;20314;-81
2022/06/25 08:45:57;;;;;;;0.90;0.30;;;;;;;24.75;72.43;99189.94;5091339;27;20321;-81
2022/06/25 08:48:29;;;;;;;0.20;0.20;;;;;;;24.64;72.52;99187.81;5113094;27;20358;-81
2022/06/25 08:50:56;;;;;;;0.30;0.20;;;;;;;24.96;70.56;99190.91;5096389;28;20233;-80
2022/06/25 08:53:23;;;;;;;0.68;0.20;;;;;;;24.84;65.77;99192.66;5099485;27;20228;-81
2022/06/25 08:55:50;;;;;;;0.43;0.30;;;;;;;24.57;69.57;99193.81;5095956;28;20768;-82
2022/06/25 08:58:17;;;;;;;0.50;0.30;;;;;;;24.61;67.83;99191.22;5098257;27;20736;-80
2022/06/25 09:00:47;;;;;;;0.30;0.30;;;;;;;24.72;66.88;99200.75;5113625;27;20772;-80
2022/06/25 09:03:14;;;;;;;0.65;0.20;;;;;;;24.68;68.43;99208.00;5104288;27;20311;-81
2022/06/25 09:05:43;;;;;;;0.57;0.30;;;;;;;23.93;71.95;99204.47;5113745;27;20241;-82
2022/06/25 09:08:15;;;;;;;0.38;0.30;;;;;;;23.95;74.37;99204.13;5075478;28;20673;-81
2022/06/25 09:10:44;;;;;;;0.38;0.30;;;;;;;23.85;74.34;99207.16;5093158;28;20239;-81
2022/06/25 09:13:12;;;;;;;0.63;0.30;;;;;;;23.56;74.19;99210.44;5076062;28;20233;-81
2022/06/25 09:15:44;;;;;;;0.75;0.30;;;;;;;23.42;74.89;99210.50;5105344;27;20236;-79
2022/06/25 09:18:16;;;;;;;0.82;0.30;;;;;;;23.27;78.54;99214.44;5112051;27;20215;-83
2022/06/25 09:21:03;;;;;;;0.85;0.30;;;;;;;23.27;77.22;99208.97;5112237;27;20235;-79
2022/06/25 09:23:32;;;;;;;0.82;0.35;;;;;;;23.07;78.10;99211.41;5094805;28;20289;-77
2022/06/25 09:26:11;;;;;;;0.35;0.35;;;;;;;22.88;79.41;99219.81;5115144;27;20245;-77
2022/06/25 09:28:40;;;;;;;0.88;0.50;;;;;;;22.69;82.53;99224.59;5110740;27;20223;-76
2022/06/25 09:31:07;;;;;;;0.60;0.50;;;;;;;22.47;85.21;99230.03;5085994;28;20227;-76
2022/06/25 09:33:36;;;;;;;1.37;0.40;;;;;;;22.54;84.39;99224.94;5114142;27;20238;-76
2022/06/25 09:36:03;;;;;;;0.98;0.50;;;;;;;22.68;82.02;99222.97;5122255;27;20237;-77
2022/06/25 09:38:30;;;;;;;1.00;0.50;;;;;;;22.68;80.88;99212.06;5112475;27;20628;-76
2022/06/25 09:40:59;;;;;;;0.40;0.33;;;;;;;22.68;80.17;99225.69;5092978;28;20249;-76
2022/06/25 09:43:35;;;;;;;1.70;0.50;;;;;;;22.88;76.95;99225.25;5078683;28;20676;-76
2022/06/25 09:46:04;;;;;;;1.67;0.40;;;;;;;22.99;75.70;99234.84;5092373;28;20325;-77
2022/06/25 09:48:33;;;;;;;0.40;0.40;;;;;;;22.97;77.67;99217.13;5111972;28;20231;-77
2022/06/25 09:51:16;;;;;;;1.07;0.50;;;;;;;23.32;75.11;99223.63;5092562;28;20231;-76
2022/06/25 09:53:54;;;;;;;0.40;0.40;;;;;;;23.28;74.43;99229.69;5116811;28;20225;-76
2022/06/25 09:56:26;;;;;;;0.60;0.50;;;;;;;23.38;73.18;99228.63;5088281;28;20288;-75
2022/06/25 09:58:54;;;;;;;0.50;0.50;;;;;;;23.47;72.98;99228.75;5113113;28;20700;-75
2022/06/25 10:01:23;;;;;;;1.40;0.30;;;;;;;23.56;71.72;99222.16;5109829;28;20234;-76
2022/06/25 10:03:50;;;;;;;0.52;0.47;;;;;;;23.71;71.00;99229.16;5111513;28;20227;-76
2022/06/25 10:06:19;;;;;;;0.50;0.50;;;;;;;23.57;74.32;99223.78;5099281;28;20230;-76
2022/06/25 10:08:49;;;;;;;1.42;0.57;;;;;;;23.32;74.45;99220.91;5103719;28;20269;-76
2022/06/25 10:11:22;;;;;;;0.40;0.40;;;;;;;22.94;76.25;99229.50;5110742;28;20356;-76
2022/06/25 10:13:50;;;;;;;0.55;0.38;;;;;;;23.11;74.95;99226.06;5101064;28;20237;-76
2022/06/25 10:16:22;;;;;;;0.40;0.40;;;;;;;23.19;74.79;99222.56;5100744;28;20284;-76
2022/06/25 10:18:49;;;;;;;0.88;0.60;;;;;;;23.12;76.21;99230.41;5102978;28;20264;-76
2022/06/25 10:21:21;;;;;;;1.65;0.50;;;;;;;23.45;73.88;99222.75;5095295;28;20234;-76
2022/06/25 10:23:53;;;;;;;0.57;0.40;;;;;;;23.58;71.66;99219.13;5102902;28;20227;-76
2022/06/25 10:26:20;;;;;;;0.93;0.47;;;;;;;23.62;71.35;99222.84;5104633;28;20377;-76
2022/06/25 10:28:47;;;;;;;1.95;0.57;;;;;;;23.94;70.14;99217.00;5085608;28;20223;-78
2022/06/25 10:31:16;;;;;;;1.10;0.40;;;;;;;24.45;68.33;99232.00;5101041;28;20240;-77
2022/06/25 10:34:02;;;;;;;0.73;0.50;;;;;;;24.60;65.83;99225.22;5101588;28;20327;-76
2022/06/25 10:36:39;;;;;;;0.57;0.52;;;;;;;24.84;62.13;99220.06;5104283;28;20228;-76
2022/06/25 10:39:24;;;;;;;0.40;0.40;;;;;;;24.81;64.34;99216.03;5078386;28;20665;-77
2022/06/25 10:45:28;;;;;;;1.48;0.50;;;;;;;25.88;59.65;99221.47;5091545;28;20224;-77
2022/06/25 10:47:57;;;;;;;0.95;0.40;;;;;;;26.42;57.13;99224.41;5101786;28;20311;-77
2022/06/25 10:50:25;;;;;;;0.50;0.50;;;;;;;26.34;55.41;99219.78;5110260;28;20699;-76
2022/06/25 10:53:15;;;;;;;0.55;0.50;;;;;;;26.60;55.75;99221.19;5103908;27;20233;-76
2022/06/25 10:55:48;;;;;;;1.17;0.70;;;;;;;27.12;56.43;99226.28;5095742;28;20320;-75
2022/06/25 10:58:21;;;;;;;0.50;0.50;;;;;;;26.95;53.08;99212.69;5116781;27;20272;-79
2022/06/25 11:00:54;;;;;;;0.50;0.50;;;;;;;27.04;52.28;99222.47;5117595;27;20252;-77
2022/06/25 11:03:32;;;;;;;1.85;0.60;;;;;;;26.59;53.47;99208.63;5113215;27;20856;-76
2022/06/25 11:06:32;;;;;;;0.38;0.38;;;;;;;26.65;53.69;99214.69;5114836;27;20708;-76
2022/06/25 11:09:12;;;;;;;1.08;0.60;;;;;;;27.20;52.97;99214.41;5109651;27;20239;-76
2022/06/25 11:11:41;;;;;;;1.73;0.50;;;;;;;27.45;51.73;99210.56;5096083;28;20235;-78
2022/06/25 11:14:22;;;;;;;0.60;0.60;;;;;;;27.54;49.98;99203.03;5111777;27;20227;-75
2022/06/25 11:16:50;;;;;;;0.40;0.40;;;;;;;27.34;52.44;99209.38;5098078;27;20231;-76
2022/06/25 11:19:17;;;;;;;1.17;0.40;;;;;;;27.07;51.20;99202.53;5108281;27;20234;-76
2022/06/25 11:21:45;;;;;;;0.50;0.50;;;;;;;27.28;50.73;99198.94;5115301;27;20258;-76
2022/06/25 11:24:15;;;;;;;0.93;0.40;;;;;;;28.41;49.29;99198.00;5122826;27;20231;-76
2022/06/25 11:29:35;;;;;;;0.65;0.50;;;;;;;28.16;46.94;99192.84;5118074;27;20240;-77
2022/06/25 11:32:02;;;;;;;0.95;0.40;;;;;;;28.28;47.37;99196.38;5096686;27;20264;-76
2022/06/25 11:34:30;;;;;;;1.50;0.50;;;;;;;28.68;45.79;99199.19;5109748;27;20243;-76
2022/06/25 11:37:02;;;;;;;0.50;0.50;;;;;;;28.85;45.34;99192.59;5098259;27;20240;-77
2022/06/25 11:39:29;;;;;;;0.45;0.45;;;;;;;27.80;47.54;99190.91;5109171;27;20232;-76
2022/06/25 11:41:56;;;;;;;1.52;0.50;;;;;;;28.17;46.13;99178.75;5118897;27;20310;-76
2022/06/25 11:44:23;;;;;;;1.08;0.50;;;;;;;28.50;45.69;99175.00;5117367;27;20764;-76
2022/06/25 11:46:51;;;;;;;0.65;0.50;;;;;;;29.03;44.17;99184.81;5118969;27;20230;-77
2022/06/25 11:49:20;;;;;;;0.98;0.40;;;;;;;29.40;42.83;99177.13;5114096;27;20590;-78
2022/06/25 11:51:48;;;;;;;1.27;0.40;;;;;;;29.57;42.03;99169.34;5112836;27;20322;-77
2022/06/25 11:54:19;;;;;;;0.50;0.40;;;;;;;29.58;41.06;99172.91;5113159;27;20322;-76
2022/06/25 11:56:47;;;;;;;2.20;0.50;;;;;;;29.30;41.87;99178.50;5112905;27;20233;-77
2022/06/25 11:59:27;;;;;;;0.68;0.40;;;;;;;29.04;42.43;99170.66;5102634;27;20219;-77
2022/06/25 12:01:55;;;;;;;0.95;0.50;;;;;;;28.77;42.52;99160.47;5122110;27;20223;-76